Time;durP1;ratioP1;P1;durP2;ratioP2;P2;SDS_P1;SDS_P2;PMS_P1;PMS_P2;Temp;Humidity;BMP_temperature;BMP_pressure;BME280_temperature;BME280_humidity;BME280_pressure;Samples;Min_cycle;Max_cycle;Signal;HPM_P1;HPM_P2
2021/08/23 00:02:13;;;;;;;;;;;;;;;;;;5133461;27;19939;-74
2021/08/23 00:04:39;;;;;;;;;;;;;;;;;;5133513;27;20271;-74
2021/08/23 00:07:06;;;;;;;;;;;;;;;;;;5133724;27;19927;-73
2021/08/23 00:09:33;;;;;;;;;;;;;;;;;;5133437;27;19976;-74
2021/08/23 00:11:59;;;;;;;;;;;;;;;;;;5133581;27;20346;-74
2021/08/23 00:14:25;;;;;;;;;;;;;;;;;;5133625;27;19923;-73
2021/08/23 00:16:51;;;;;;;;;;;;;;;;;;5132994;27;19923;-74
2021/08/23 00:19:18;;;;;;;;;;;;;;;;;;5133591;28;19925;-74
2021/08/23 00:21:44;;;;;;;;;;;;;;;;;;5132915;28;19923;-74
2021/08/23 00:24:21;;;;;;;;;;;;;;;;;;5133476;28;19931;-73
2021/08/23 00:26:47;;;;;;;;;;;;;;;;;;5133056;28;20289;-74
2021/08/23 00:29:14;;;;;;;;;;;;;;;;;;5133479;28;19924;-74
2021/08/23 00:31:40;;;;;;;;;;;;;;;;;;5132803;28;20381;-74
2021/08/23 00:34:06;;;;;;;;;;;;;;;;;;5133332;28;19927;-74
2021/08/23 00:36:32;;;;;;;;;;;;;;;;;;5132768;28;19924;-74
2021/08/23 00:38:59;;;;;;;;;;;;;;;;;;5133446;28;19923;-74
2021/08/23 00:41:25;;;;;;;;;;;;;;;;;;5133042;28;19931;-74
2021/08/23 00:43:51;;;;;;;;;;;;;;;;;;5133077;28;19947;-74
2021/08/23 00:46:18;;;;;;;;;;;;;;;;;;5133334;28;19930;-73
2021/08/23 00:48:44;;;;;;;;;;;;;;;;;;5132853;28;20312;-74
2021/08/23 00:51:10;;;;;;;;;;;;;;;;;;5133051;28;20005;-74
2021/08/23 00:53:36;;;;;;;;;;;;;;;;;;5132952;28;19928;-74
2021/08/23 00:56:03;;;;;;;;;;;;;;;;;;5133274;28;19923;-73
2021/08/23 00:58:29;;;;;;;;;;;;;;;;;;5135031;27;20357;-73
2021/08/23 01:00:55;;;;;;;;;;;;;;;;;;5137188;27;19923;-74
2021/08/23 01:03:22;;;;;;;;;;;;;;;;;;5137203;27;19946;-74
2021/08/23 01:05:48;;;;;;;;;;;;;;;;;;5136760;27;19924;-74
2021/08/23 01:08:14;;;;;;;;;;;;;;;;;;5137000;27;19930;-74
2021/08/23 01:10:42;;;;;;;;;;;;;;;;;;5136542;27;19931;-74
2021/08/23 01:13:08;;;;;;;;;;;;;;;;;;5137007;27;20018;-74
2021/08/23 01:15:35;;;;;;;;;;;;;;;;;;5136372;27;19923;-74
2021/08/23 01:18:01;;;;;;;;;;;;;;;;;;5137049;27;20263;-73
2021/08/23 01:20:27;;;;;;;;;;;;;;;;;;5136367;27;19930;-74
2021/08/23 01:22:54;;;;;;;;;;;;;;;;;;5136770;27;19923;-74
2021/08/23 01:25:20;;;;;;;;;;;;;;;;;;5136624;27;19923;-73
2021/08/23 01:27:46;;;;;;;;;;;;;;;;;;5136223;27;20377;-74
2021/08/23 01:30:12;;;;;;;;;;;;;;;;;;5136670;27;19923;-74
2021/08/23 01:32:39;;;;;;;;;;;;;;;;;;5135969;27;19930;-74
2021/08/23 01:35:05;;;;;;;;;;;;;;;;;;5136756;27;19923;-74
2021/08/23 01:37:33;;;;;;;;;;;;;;;;;;5135934;27;19934;-74
2021/08/23 01:39:59;;;;;;;;;;;;;;;;;;5136114;27;20377;-73
2021/08/23 01:42:25;;;;;;;;;;;;;;;;;;5136360;27;19924;-74
2021/08/23 01:44:52;;;;;;;;;;;;;;;;;;5136075;27;20334;-74
2021/08/23 01:47:18;;;;;;;;;;;;;;;;;;5136213;27;19931;-74
2021/08/23 01:49:44;;;;;;;;;;;;;;;;;;5136005;27;20385;-74
2021/08/23 01:52:10;;;;;;;;;;;;;;;;;;5136114;27;19923;-74
2021/08/23 01:54:37;;;;;;;;;;;;;;;;;;5135815;27;20416;-74
2021/08/23 01:57:03;;;;;;;;;;;;;;;;;;5135958;27;19931;-74
2021/08/23 01:59:29;;;;;;;;;;;;;;;;;;5135740;27;19923;-74
2021/08/23 02:01:56;;;;;;;;;;;;;;;;;;5135635;27;19924;-74
2021/08/23 02:04:22;;;;;;;;;;;;;;;;;;5136223;27;19923;-74
2021/08/23 02:06:48;;;;;;;;;;;;;;;;;;5135458;27;19923;-74
2021/08/23 02:09:14;;;;;;;;;;;;;;;;;;5135680;27;19923;-74
2021/08/23 02:11:41;;;;;;;;;;;;;;;;;;5135362;27;19923;-74
2021/08/23 02:14:07;;;;;;;;;;;;;;;;;;5135926;27;19951;-74
2021/08/23 02:16:38;;;;;;;;;;;;;;;;;;5135251;27;19924;-74
2021/08/23 02:19:05;;;;;;;;;;;;;;;;;;5135534;27;19927;-74
2021/08/23 02:21:31;;;;;;;;;;;;;;;;;;5135352;27;20293;-74
2021/08/23 02:23:57;;;;;;;;;;;;;;;;;;5135395;27;19935;-74
2021/08/23 02:26:23;;;;;;;;;;;;;;;;;;5135594;27;20391;-74
2021/08/23 02:28:50;;;;;;;;;;;;;;;;;;5135275;27;19927;-74
2021/08/23 02:31:16;;;;;;;;;;;;;;;;;;5135397;27;20282;-74
2021/08/23 02:33:42;;;;;;;;;;;;;;;;;;5135303;27;19927;-74
2021/08/23 02:36:08;;;;;;;;;;;;;;;;;;5135333;27;19923;-74
2021/08/23 02:38:35;;;;;;;;;;;;;;;;;;5135354;27;19924;-74
2021/08/23 02:41:01;;;;;;;;;;;;;;;;;;5135072;27;19930;-74
2021/08/23 02:43:27;;;;;;;;;;;;;;;;;;5135444;27;19927;-74
2021/08/23 02:45:54;;;;;;;;;;;;;;;;;;5134947;27;19931;-74
2021/08/23 02:48:20;;;;;;;;;;;;;;;;;;5135251;27;19930;-74
2021/08/23 02:50:46;;;;;;;;;;;;;;;;;;5134734;27;19924;-74
2021/08/23 02:53:15;;;;;;;;;;;;;;;;;;5135157;27;20009;-74
2021/08/23 02:55:41;;;;;;;;;;;;;;;;;;5134499;27;20018;-74
2021/08/23 02:58:08;;;;;;;;;;;;;;;;;;5134952;27;19927;-73
2021/08/23 03:00:34;;;;;;;;;;;;;;;;;;5134343;27;20442;-74
2021/08/23 03:03:01;;;;;;;;;;;;;;;;;;5134928;27;19923;-73
2021/08/23 03:05:27;;;;;;;;;;;;;;;;;;5134516;27;19924;-73
2021/08/23 03:07:53;;;;;;;;;;;;;;;;;;5134618;27;19923;-74
2021/08/23 03:10:19;;;;;;;;;;;;;;;;;;5134503;27;19923;-74
2021/08/23 03:12:46;;;;;;;;;;;;;;;;;;5134513;27;19930;-74
2021/08/23 03:15:12;;;;;;;;;;;;;;;;;;5134812;27;19972;-74
2021/08/23 03:17:38;;;;;;;;;;;;;;;;;;5133953;27;20373;-74
2021/08/23 03:20:05;;;;;;;;;;;;;;;;;;5134071;27;19931;-74
2021/08/23 03:22:31;;;;;;;;;;;;;;;;;;5133960;27;20396;-74
2021/08/23 03:24:57;;;;;;;;;;;;;;;;;;5134474;27;19928;-76
2021/08/23 03:27:23;;;;;;;;;;;;;;;;;;5134192;27;19924;-74
2021/08/23 03:29:51;;;;;;;;;;;;;;;;;;5134123;27;19928;-74
2021/08/23 03:32:17;;;;;;;;;;;;;;;;;;5134109;27;19976;-73
2021/08/23 03:34:43;;;;;;;;;;;;;;;;;;5134133;27;19924;-74
2021/08/23 03:37:10;;;;;;;;;;;;;;;;;;5133809;27;19927;-74
2021/08/23 03:39:36;;;;;;;;;;;;;;;;;;5134221;27;19930;-76
2021/08/23 03:42:02;;;;;;;;;;;;;;;;;;5134064;27;20396;-75
2021/08/23 03:44:29;;;;;;;;;;;;;;;;;;5134530;27;19923;-76
2021/08/23 03:46:55;;;;;;;;;;;;;;;;;;5133862;27;19923;-74
2021/08/23 03:49:21;;;;;;;;;;;;;;;;;;5134333;27;19923;-74
2021/08/23 03:51:47;;;;;;;;;;;;;;;;;;5133441;27;19927;-75
2021/08/23 03:54:14;;;;;;;;;;;;;;;;;;5134051;27;19924;-75
2021/08/23 03:56:40;;;;;;;;;;;;;;;;;;5133470;27;19931;-75
2021/08/23 03:59:06;;;;;;;;;;;;;;;;;;5133487;27;20365;-72
2021/08/23 04:01:33;;;;;;;;;;;;;;;;;;5133647;27;19923;-73
2021/08/23 04:03:59;;;;;;;;;;;;;;;;;;5133508;27;20293;-72
2021/08/23 04:06:25;;;;;;;;;;;;;;;;;;5133784;27;19930;-74
2021/08/23 04:08:52;;;;;;;;;;;;;;;;;;5133296;27;19923;-75
2021/08/23 04:11:18;;;;;;;;;;;;;;;;;;5133494;27;19967;-75
2021/08/23 04:13:44;;;;;;;;;;;;;;;;;;5133375;27;19930;-74
2021/08/23 04:16:11;;;;;;;;;;;;;;;;;;5133495;27;20385;-73
2021/08/23 04:18:37;;;;;;;;;;;;;;;;;;5133444;27;19931;-74
2021/08/23 04:21:03;;;;;;;;;;;;;;;;;;5133272;28;19931;-74
2021/08/23 04:23:29;;;;;;;;;;;;;;;;;;5133678;28;19923;-74
2021/08/23 04:25:56;;;;;;;;;;;;;;;;;;5133256;28;19935;-73
2021/08/23 04:28:22;;;;;;;;;;;;;;;;;;5133669;28;19931;-73
2021/08/23 04:30:48;;;;;;;;;;;;;;;;;;5133010;28;19927;-71
2021/08/23 04:33:16;;;;;;;;;;;;;;;;;;5135438;27;19924;-71
2021/08/23 04:35:42;;;;;;;;;;;;;;;;;;5137453;27;19930;-71
2021/08/23 04:38:09;;;;;;;;;;;;;;;;;;5137197;27;20381;-71
2021/08/23 04:40:35;;;;;;;;;;;;;;;;;;5137387;27;19924;-71
2021/08/23 04:43:01;;;;;;;;;;;;;;;;;;5137210;27;19923;-71
2021/08/23 04:45:27;;;;;;;;;;;;;;;;;;5137516;27;19923;-74
2021/08/23 04:47:54;;;;;;;;;;;;;;;;;;5136783;27;19923;-74
2021/08/23 04:50:20;;;;;;;;;;;;;;;;;;5137628;27;19930;-78
2021/08/23 04:52:47;;;;;;;;;;;;;;;;;;5137096;27;19923;-77
2021/08/23 04:55:13;;;;;;;;;;;;;;;;;;5137151;27;20275;-77
2021/08/23 04:57:39;;;;;;;;;;;;;;;;;;5136916;27;20301;-77
2021/08/23 05:00:06;;;;;;;;;;;;;;;;;;5137025;27;19924;-77
2021/08/23 05:02:32;;;;;;;;;;;;;;;;;;5137006;27;19935;-78
2021/08/23 05:04:58;;;;;;;;;;;;;;;;;;5136887;27;19935;-76
2021/08/23 05:07:25;;;;;;;;;;;;;;;;;;5137242;27;19923;-78
2021/08/23 05:09:51;;;;;;;;;;;;;;;;;;5136523;27;19930;-77
2021/08/23 05:12:17;;;;;;;;;;;;;;;;;;5136976;27;19946;-78
2021/08/23 05:14:43;;;;;;;;;;;;;;;;;;5136683;27;19930;-78
2021/08/23 05:17:10;;;;;;;;;;;;;;;;;;5136977;27;19924;-77
2021/08/23 05:19:36;;;;;;;;;;;;;;;;;;5136263;27;19923;-78
2021/08/23 05:22:02;;;;;;;;;;;;;;;;;;5136430;27;19939;-78
2021/08/23 05:24:29;;;;;;;;;;;;;;;;;;5136458;27;19927;-77
2021/08/23 05:26:55;;;;;;;;;;;;;;;;;;5136826;27;19923;-74
2021/08/23 05:29:21;;;;;;;;;;;;;;;;;;5136384;27;20373;-75
2021/08/23 05:31:47;;;;;;;;;;;;;;;;;;5136463;27;19931;-77
2021/08/23 05:34:14;;;;;;;;;;;;;;;;;;5136250;27;20282;-77
2021/08/23 05:36:40;;;;;;;;;;;;;;;;;;5136461;27;19931;-77
2021/08/23 05:39:06;;;;;;;;;;;;;;;;;;5136392;27;20024;-78
2021/08/23 05:41:33;;;;;;;;;;;;;;;;;;5136262;27;19935;-77
2021/08/23 05:43:59;;;;;;;;;;;;;;;;;;5135757;27;19946;-78
2021/08/23 05:46:25;;;;;;;;;;;;;;;;;;5136259;27;19923;-78
2021/08/23 05:48:51;;;;;;;;;;;;;;;;;;5136400;27;19930;-77
2021/08/23 05:51:18;;;;;;;;;;;;;;;;;;5136116;27;19930;-78
2021/08/23 05:53:44;;;;;;;;;;;;;;;;;;5136166;27;19923;-77
2021/08/23 05:56:10;;;;;;;;;;;;;;;;;;5135865;27;19924;-75
2021/08/23 05:58:37;;;;;;;;;;;;;;;;;;5135971;27;19924;-77
2021/08/23 06:01:03;;;;;;;;;;;;;;;;;;5135849;27;19923;-78
2021/08/23 06:03:29;;;;;;;;;;;;;;;;;;5136278;27;19927;-78
2021/08/23 06:05:55;;;;;;;;;;;;;;;;;;5135977;27;19931;-77
2021/08/23 06:08:22;;;;;;;;;;;;;;;;;;5136312;27;19923;-78
2021/08/23 06:10:48;;;;;;;;;;;;;;;;;;5135424;27;20498;-78
2021/08/23 06:13:14;;;;;;;;;;;;;;;;;;5136178;27;19923;-78
2021/08/23 06:15:41;;;;;;;;;;;;;;;;;;5135386;27;20388;-76
2021/08/23 06:18:07;;;;;;;;;;;;;;;;;;5135661;27;19924;-76
2021/08/23 06:20:33;;;;;;;;;;;;;;;;;;5135249;27;20293;-75
2021/08/23 06:23:00;;;;;;;;;;;;;;;;;;5135462;27;19928;-75
2021/08/23 06:25:26;;;;;;;;;;;;;;;;;;5135963;27;19930;-78
2021/08/23 06:27:52;;;;;;;;;;;;;;;;;;5135019;27;19924;-78
2021/08/23 06:30:18;;;;;;;;;;;;;;;;;;5135693;27;19938;-80
2021/08/23 06:32:45;;;;;;;;;;;;;;;;;;5135137;27;19924;-77
2021/08/23 06:35:11;;;;;;;;;;;;;;;;;;5135699;27;19931;-77
2021/08/23 06:37:40;;;;;;;;;;;;;;;;;;5135072;27;20377;-78
2021/08/23 06:40:08;;;;;;;;;;;;;;;;;;5135325;27;19923;-78
2021/08/23 06:42:35;;;;;;;;;;;;;;;;;;5134946;27;20018;-78
2021/08/23 06:45:01;;;;;;;;;;;;;;;;;;5135320;27;19924;-78
2021/08/23 06:47:27;;;;;;;;;;;;;;;;;;5135181;27;19923;-76
2021/08/23 06:49:53;;;;;;;;;;;;;;;;;;5134865;27;19935;-76
2021/08/23 06:52:20;;;;;;;;;;;;;;;;;;5135024;27;19927;-76
2021/08/23 06:54:46;;;;;;;;;;;;;;;;;;5134435;27;19924;-75
2021/08/23 06:57:12;;;;;;;;;;;;;;;;;;5134308;27;19931;-76
2021/08/23 06:59:39;;;;;;;;;;;;;;;;;;5134623;27;19931;-78
2021/08/23 07:02:05;;;;;;;;;;;;;;;;;;5134678;27;19924;-78
2021/08/23 07:04:31;;;;;;;;;;;;;;;;;;5134645;27;19923;-78
2021/08/23 07:06:57;;;;;;;;;;;;;;;;;;5134604;27;19930;-78
2021/08/23 07:09:24;;;;;;;;;;;;;;;;;;5134847;27;19923;-78
2021/08/23 07:11:50;;;;;;;;;;;;;;;;;;5134146;27;19931;-78
2021/08/23 07:14:16;;;;;;;;;;;;;;;;;;5134739;27;19943;-78
2021/08/23 07:16:43;;;;;;;;;;;;;;;;;;5134142;27;19923;-78
2021/08/23 07:19:09;;;;;;;;;;;;;;;;;;5134626;27;19923;-78
2021/08/23 07:21:35;;;;;;;;;;;;;;;;;;5133929;27;19930;-78
2021/08/23 07:24:01;;;;;;;;;;;;;;;;;;5134739;27;19923;-78
2021/08/23 07:26:28;;;;;;;;;;;;;;;;;;5134229;27;20327;-78
2021/08/23 07:28:54;;;;;;;;;;;;;;;;;;5134200;27;20008;-78
2021/08/23 07:31:21;;;;;;;;;;;;;;;;;;5134017;27;20397;-78
2021/08/23 07:33:47;;;;;;;;;;;;;;;;;;5133627;27;20016;-79
2021/08/23 07:36:13;;;;;;;;;;;;;;;;;;5134136;27;19923;-79
2021/08/23 07:38:40;;;;;;;;;;;;;;;;;;5133538;27;19924;-78
2021/08/23 07:41:06;;;;;;;;;;;;;;;;;;5134353;27;19931;-78
2021/08/23 07:43:32;;;;;;;;;;;;;;;;;;5133466;27;19927;-78
2021/08/23 07:45:58;;;;;;;;;;;;;;;;;;5134087;27;19924;-78
2021/08/23 07:48:25;;;;;;;;;;;;;;;;;;5134065;27;20373;-78
2021/08/23 07:50:51;;;;;;;;;;;;;;;;;;5133859;27;19923;-78
2021/08/23 07:53:17;;;;;;;;;;;;;;;;;;5134071;27;19947;-79
2021/08/23 07:55:44;;;;;;;;;;;;;;;;;;5133491;27;19924;-78
2021/08/23 07:58:10;;;;;;;;;;;;;;;;;;5133878;27;19927;-78
2021/08/23 08:00:36;;;;;;;;;;;;;;;;;;5133601;27;19924;-78
2021/08/23 08:03:03;;;;;;;;;;;;;;;;;;5133600;27;19931;-79
2021/08/23 08:05:29;;;;;;;;;;;;;;;;;;5133832;27;19923;-76
2021/08/23 08:07:55;;;;;;;;;;;;;;;;;;5133402;27;19923;-78
2021/08/23 08:10:22;;;;;;;;;;;;;;;;;;5133798;27;19924;-78
2021/08/23 08:12:48;;;;;;;;;;;;;;;;;;5133326;27;19924;-78
2021/08/23 08:15:14;;;;;;;;;;;;;;;;;;5133467;27;19923;-78
2021/08/23 08:17:41;;;;;;;;;;;;;;;;;;5133454;27;19927;-78
2021/08/23 08:20:07;;;;;;;;;;;;;;;;;;5133167;27;19923;-77
2021/08/23 08:22:33;;;;;;;;;;;;;;;;;;5133461;28;19927;-78
2021/08/23 08:24:59;;;;;;;;;;;;;;;;;;5133430;28;19924;-78
2021/08/23 08:27:26;;;;;;;;;;;;;;;;;;5133743;28;19930;-78
2021/08/23 08:29:52;;;;;;;;;;;;;;;;;;5133114;28;19924;-77
2021/08/23 08:32:19;;;;;;;;;;;;;;;;;;5133620;28;19923;-78
2021/08/23 08:34:46;;;;;;;;;;;;;;;;;;5133433;28;19923;-79
2021/08/23 08:37:12;;;;;;;;;;;;;;;;;;5133213;28;19923;-77
2021/08/23 08:39:40;;;;;;;;;;;;;;;;;;5133267;28;19943;-77
2021/08/23 08:42:07;;;;;;;;;;;;;;;;;;5133480;28;19924;-77
2021/08/23 08:44:33;;;;;;;;;;;;;;;;;;5133206;28;19950;-74
2021/08/23 08:46:59;;;;;;;;;;;;;;;;;;5133221;28;19924;-77
2021/08/23 08:49:25;;;;;;;;;;;;;;;;;;5133460;28;19946;-76
2021/08/23 08:51:52;;;;;;;;;;;;;;;;;;5133159;28;19924;-76
2021/08/23 08:54:18;;;;;;;;;;;;;;;;;;5133685;28;20277;-76
2021/08/23 08:56:44;;;;;;;;;;;;;;;;;;5132976;28;20262;-76
2021/08/23 08:59:12;;;;;;;;;;;;;;;;;;5133324;28;19927;-76
2021/08/23 09:01:38;;;;;;;;;;;;;;;;;;5133069;28;19927;-75
2021/08/23 09:04:04;;;;;;;;;;;;;;;;;;5133044;28;19924;-77
2021/08/23 09:06:30;;;;;;;;;;;;;;;;;;5133121;28;19934;-77
2021/08/23 09:08:57;;;;;;;;;;;;;;;;;;5132902;28;19924;-77
2021/08/23 09:11:23;;;;;;;;;;;;;;;;;;5133189;28;19924;-77
2021/08/23 09:13:49;;;;;;;;;;;;;;;;;;5132719;28;19930;-76
2021/08/23 09:16:16;;;;;;;;;;;;;;;;;;5133013;28;20022;-77
2021/08/23 09:18:42;;;;;;;;;;;;;;;;;;5133610;27;19923;-76
2021/08/23 09:21:10;;;;;;;;;;;;;;;;;;5136478;27;19930;-76
2021/08/23 09:23:36;;;;;;;;;;;;;;;;;;5136720;27;19923;-76
2021/08/23 09:26:02;;;;;;;;;;;;;;;;;;5136634;27;20317;-74
2021/08/23 09:28:28;;;;;;;;;;;;;;;;;;5136457;27;19923;-76
2021/08/23 09:30:55;;;;;;;;;;;;;;;;;;5136962;27;19923;-76
2021/08/23 09:33:21;;;;;;;;;;;;;;;;;;5136599;27;19939;-75
2021/08/23 09:35:47;;;;;;;;;;;;;;;;;;5136055;27;20401;-77
2021/08/23 09:38:17;;;;;;;;;;;;;;;;;;5136653;27;19923;-76
2021/08/23 09:40:43;;;;;;;;;;;;;;;;;;5136328;27;19970;-77
2021/08/23 09:43:11;;;;;;;;;;;;;;;;;;5136324;27;20277;-74
2021/08/23 09:45:37;;;;;;;;;;;;;;;;;;5136310;27;19969;-76
2021/08/23 09:48:03;;;;;;;;;;;;;;;;;;5136350;27;19923;-76
2021/08/23 09:50:30;;;;;;;;;;;;;;;;;;5136193;27;19930;-76
2021/08/23 09:52:56;;;;;;;;;;;;;;;;;;5136231;27;19923;-77
2021/08/23 09:55:22;;;;;;;;;;;;;;;;;;5136057;27;20568;-77
2021/08/23 09:57:48;;;;;;;;;;;;;;;;;;5136172;27;19923;-77
2021/08/23 10:00:15;;;;;;;;;;;;;;;;;;5135991;27;20284;-77
2021/08/23 10:02:41;;;;;;;;;;;;;;;;;;5136007;27;19934;-78
2021/08/23 10:05:07;;;;;;;;;;;;;;;;;;5136075;27;19930;-77
2021/08/23 10:07:34;;;;;;;;;;;;;;;;;;5135813;27;19931;-76
2021/08/23 10:10:00;;;;;;;;;;;;;;;;;;5135999;27;20399;-77
2021/08/23 10:12:26;;;;;;;;;;;;;;;;;;5135987;27;19924;-76
2021/08/23 10:14:52;;;;;;;;;;;;;;;;;;5135730;27;20396;-76
2021/08/23 10:17:20;;;;;;;;;;;;;;;;;;5135831;27;19923;-78
2021/08/23 10:19:47;;;;;;;;;;;;;;;;;;5135036;27;20030;-78
2021/08/23 10:22:13;;;;;;;;;;;;;;;;;;5135835;27;19924;-78
2021/08/23 10:24:39;;;;;;;;;;;;;;;;;;5135270;27;19930;-76
2021/08/23 10:27:06;;;;;;;;;;;;;;;;;;5135708;27;19923;-79
2021/08/23 10:29:32;;;;;;;;;;;;;;;;;;5134919;27;19931;-78
2021/08/23 10:31:58;;;;;;;;;;;;;;;;;;5135629;27;19923;-78
2021/08/23 10:34:24;;;;;;;;;;;;;;;;;;5135739;27;19930;-78
2021/08/23 10:36:51;;;;;;;;;;;;;;;;;;5135456;27;19933;-79
2021/08/23 10:39:17;;;;;;;;;;;;;;;;;;5135145;27;19924;-72
2021/08/23 10:41:43;;;;;;;;;;;;;;;;;;5135140;27;19930;-79
2021/08/23 10:44:09;;;;;;;;;;;;;;;;;;5135231;27;19923;-78
2021/08/23 10:46:36;;;;;;;;;;;;;;;;;;5135041;27;19923;-80
2021/08/23 10:49:02;;;;;;;;;;;;;;;;;;5133880;27;19923;-77
2021/08/23 10:51:28;;;;;;;;;;;;;;;;;;5135060;27;19923;-78
2021/08/23 10:53:55;;;;;;;;;;;;;;;;;;5135393;27;19945;-68
2021/08/23 10:56:21;;;;;;;;;;;;;;;;;;5135062;27;19934;-72
2021/08/23 10:58:48;;;;;;;;;;;;;;;;;;5134455;27;19963;-71
2021/08/23 11:01:14;;;;;;;;;;;;;;;;;;5134906;27;20330;-71
2021/08/23 11:03:40;;;;;;;;;;;;;;;;;;5134680;27;19924;-72
2021/08/23 11:06:07;;;;;;;;;;;;;;;;;;5134766;27;20384;-70
2021/08/23 11:08:33;;;;;;;;;;;;;;;;;;5134665;27;19935;-71
2021/08/23 11:10:59;;;;;;;;;;;;;;;;;;5134607;27;19931;-71
2021/08/23 11:13:25;;;;;;;;;;;;;;;;;;5134693;27;19930;-72
2021/08/23 11:15:52;;;;;;;;;;;;;;;;;;5134161;27;19927;-74
2021/08/23 11:18:18;;;;;;;;;;;;;;;;;;5134763;27;19924;-72
2021/08/23 11:20:44;;;;;;;;;;;;;;;;;;5133931;27;19931;-71
2021/08/23 11:23:11;;;;;;;;;;;;;;;;;;5134648;27;19932;-70
2021/08/23 11:25:37;;;;;;;;;;;;;;;;;;5134068;27;19931;-71
2021/08/23 11:28:03;;;;;;;;;;;;;;;;;;5134509;27;19954;-72
2021/08/23 11:30:29;;;;;;;;;;;;;;;;;;5134175;27;19930;-72
2021/08/23 11:32:58;;;;;;;;;;;;;;;;;;5133736;27;20210;-71
2021/08/23 11:35:24;;;;;;;;;;;;;;;;;;5134091;27;19923;-71
2021/08/23 11:37:50;;;;;;;;;;;;;;;;;;5134057;27;19927;-72
2021/08/23 11:40:17;;;;;;;;;;;;;;;;;;5133964;27;20483;-74
2021/08/23 11:42:43;;;;;;;;;;;;;;;;;;5133582;27;19930;-74
2021/08/23 11:45:09;;;;;;;;;;;;;;;;;;5133962;27;20369;-72
2021/08/23 11:47:35;;;;;;;;;;;;;;;;;;5133898;27;19931;-71
2021/08/23 11:50:02;;;;;;;;;;;;;;;;;;5133788;27;19949;-73
2021/08/23 11:52:28;;;;;;;;;;;;;;;;;;5134266;27;19924;-73
2021/08/23 11:54:54;;;;;;;;;;;;;;;;;;5133566;27;20392;-71
2021/08/23 11:57:20;;;;;;;;;;;;;;;;;;5134118;27;19930;-72
2021/08/23 11:59:47;;;;;;;;;;;;;;;;;;5133287;27;19923;-72
2021/08/23 12:02:13;;;;;;;;;;;;;;;;;;5134028;27;19923;-72
2021/08/23 12:04:39;;;;;;;;;;;;;;;;;;5133402;27;19923;-72
2021/08/23 12:07:06;;;;;;;;;;;;;;;;;;5133917;27;19935;-72
2021/08/23 12:09:33;;;;;;;;;;;;;;;;;;5133216;27;19934;-72
2021/08/23 12:11:59;;;;;;;;;;;;;;;;;;5133554;27;20293;-72
2021/08/23 12:14:28;;;;;;;;;;;;;;;;;;5133542;27;19923;-72
2021/08/23 12:16:54;;;;;;;;;;;;;;;;;;5133091;27;19924;-72
2021/08/23 12:19:20;;;;;;;;;;;;;;;;;;5133778;27;19924;-73
2021/08/23 12:21:47;;;;;;;;;;;;;;;;;;5133055;27;20351;-73
2021/08/23 12:24:13;;;;;;;;;;;;;;;;;;5133459;28;19968;-72
2021/08/23 12:26:39;;;;;;;;;;;;;;;;;;5133465;28;19970;-71
2021/08/23 12:29:05;;;;;;;;;;;;;;;;;;5133238;28;19931;-71
2021/08/23 12:31:32;;;;;;;;;;;;;;;;;;5133336;28;19927;-73
2021/08/23 12:33:58;;;;;;;;;;;;;;;;;;5133172;28;19931;-71
2021/08/23 12:36:24;;;;;;;;;;;;;;;;;;5133759;28;20264;-71
2021/08/23 12:38:51;;;;;;;;;;;;;;;;;;5133315;28;19928;-72
2021/08/23 12:41:17;;;;;;;;;;;;;;;;;;5133730;28;19947;-72
2021/08/23 12:43:44;;;;;;;;;;;;;;;;;;5132888;28;19923;-71
2021/08/23 12:46:10;;;;;;;;;;;;;;;;;;5133163;28;20374;-72
2021/08/23 12:48:36;;;;;;;;;;;;;;;;;;5133471;28;19924;-71
2021/08/23 12:51:03;;;;;;;;;;;;;;;;;;5133436;28;19924;-73
2021/08/23 12:53:29;;;;;;;;;;;;;;;;;;5133663;27;19924;-73
2021/08/23 12:55:55;;;;;;;;;;;;;;;;;;5137201;27;19966;-73
2021/08/23 12:58:22;;;;;;;;;;;;;;;;;;5137342;27;19927;-71
2021/08/23 13:00:50;;;;;;;;;;;;;;;;;;5136755;27;19923;-70
2021/08/23 13:03:16;;;;;;;;;;;;;;;;;;5137072;27;20365;-72
2021/08/23 13:05:42;;;;;;;;;;;;;;;;;;5137006;27;19935;-70
2021/08/23 13:08:08;;;;;;;;;;;;;;;;;;5136857;27;20374;-71
2021/08/23 13:10:42;;;;;;;;;;;;;;;;;;5136847;27;19924;-71
2021/08/23 13:13:09;;;;;;;;;;;;;;;;;;5136830;27;19972;-70
2021/08/23 13:15:36;;;;;;;;;;;;;;;;;;5136500;27;19923;-71
2021/08/23 13:18:02;;;;;;;;;;;;;;;;;;5136906;27;19927;-71
2021/08/23 13:20:28;;;;;;;;;;;;;;;;;;5136408;27;19931;-71
2021/08/23 13:22:55;;;;;;;;;;;;;;;;;;5136586;27;19930;-71
2021/08/23 13:25:21;;;;;;;;;;;;;;;;;;5136624;27;19924;-71
2021/08/23 13:27:47;;;;;;;;;;;;;;;;;;5136570;27;19924;-71
2021/08/23 13:30:13;;;;;;;;;;;;;;;;;;5136294;27;20400;-71
2021/08/23 13:32:40;;;;;;;;;;;;;;;;;;5135973;27;19927;-70
2021/08/23 13:35:06;;;;;;;;;;;;;;;;;;5136626;27;19923;-70
2021/08/23 13:37:32;;;;;;;;;;;;;;;;;;5135954;27;19927;-70
2021/08/23 13:39:59;;;;;;;;;;;;;;;;;;5136443;27;19924;-72
2021/08/23 13:42:25;;;;;;;;;;;;;;;;;;5136217;27;19924;-72
2021/08/23 13:44:51;;;;;;;;;;;;;;;;;;5135894;27;19929;-70
2021/08/23 13:47:18;;;;;;;;;;;;;;;;;;5136204;27;20280;-70
2021/08/23 13:49:44;;;;;;;;;;;;;;;;;;5135904;27;19931;-71
2021/08/23 13:52:10;;;;;;;;;;;;;;;;;;5136368;27;19923;-71
2021/08/23 13:54:36;;;;;;;;;;;;;;;;;;5135773;27;19924;-70
2021/08/23 13:57:03;;;;;;;;;;;;;;;;;;5136236;27;19950;-71
2021/08/23 13:59:29;;;;;;;;;;;;;;;;;;5135910;27;19923;-71
2021/08/23 14:01:56;;;;;;;;;;;;;;;;;;5136035;27;19931;-71
2021/08/23 14:04:23;;;;;;;;;;;;;;;;;;5135844;27;19927;-71
2021/08/23 14:06:49;;;;;;;;;;;;;;;;;;5136158;27;20317;-71
2021/08/23 14:09:15;;;;;;;;;;;;;;;;;;5135799;27;19931;-71
2021/08/23 14:11:41;;;;;;;;;;;;;;;;;;5135746;27;19923;-71
2021/08/23 14:14:08;;;;;;;;;;;;;;;;;;5135758;27;19923;-71
2021/08/23 14:16:34;;;;;;;;;;;;;;;;;;5135649;27;19946;-69
2021/08/23 14:19:00;;;;;;;;;;;;;;;;;;5135612;27;19923;-71
2021/08/23 14:21:27;;;;;;;;;;;;;;;;;;5135369;27;19931;-69
2021/08/23 14:23:53;;;;;;;;;;;;;;;;;;5135245;27;19942;-73
2021/08/23 14:26:19;;;;;;;;;;;;;;;;;;5135583;27;19941;-73
2021/08/23 14:28:45;;;;;;;;;;;;;;;;;;5134135;27;19924;-73
2021/08/23 14:31:12;;;;;;;;;;;;;;;;;;5134649;27;19923;-73
2021/08/23 14:33:38;;;;;;;;;;;;;;;;;;5134088;27;19923;-73
2021/08/23 14:36:04;;;;;;;;;;;;;;;;;;5134705;27;19947;-73
2021/08/23 14:38:31;;;;;;;;;;;;;;;;;;5134014;27;19924;-73
2021/08/23 14:40:57;;;;;;;;;;;;;;;;;;5134576;27;19923;-73
2021/08/23 14:43:23;;;;;;;;;;;;;;;;;;5135422;27;19927;-73
2021/08/23 14:45:49;;;;;;;;;;;;;;;;;;5135035;27;20277;-73
2021/08/23 14:48:16;;;;;;;;;;;;;;;;;;5135198;27;19923;-73
2021/08/23 14:50:42;;;;;;;;;;;;;;;;;;5135119;27;19946;-74
2021/08/23 14:53:08;;;;;;;;;;;;;;;;;;5135420;27;19930;-73
2021/08/23 14:55:35;;;;;;;;;;;;;;;;;;5134636;27;20414;-73
2021/08/23 14:58:01;;;;;;;;;;;;;;;;;;5135168;27;19924;-73
2021/08/23 15:00:27;;;;;;;;;;;;;;;;;;5134900;27;19964;-74
2021/08/23 15:02:54;;;;;;;;;;;;;;;;;;5134846;27;19927;-73
2021/08/23 15:05:20;;;;;;;;;;;;;;;;;;5134719;27;19923;-73
2021/08/23 15:07:46;;;;;;;;;;;;;;;;;;5134888;27;19924;-71
2021/08/23 15:10:13;;;;;;;;;;;;;;;;;;5134399;27;19924;-71
2021/08/23 15:12:40;;;;;;;;;;;;;;;;;;5134720;27;19924;-71
2021/08/23 15:15:06;;;;;;;;;;;;;;;;;;5134742;27;19972;-73
2021/08/23 15:17:32;;;;;;;;;;;;;;;;;;5133602;27;20373;-73
2021/08/23 15:19:59;;;;;;;;;;;;;;;;;;5134493;27;19924;-73
2021/08/23 15:22:25;;;;;;;;;;;;;;;;;;5134250;27;20400;-71
2021/08/23 15:24:51;;;;;;;;;;;;;;;;;;5134172;27;19928;-71
2021/08/23 15:27:18;;;;;;;;;;;;;;;;;;5134202;27;19924;-73
2021/08/23 15:29:44;;;;;;;;;;;;;;;;;;5134126;27;19927;-73
2021/08/23 15:32:10;;;;;;;;;;;;;;;;;;5134244;27;19923;-73
2021/08/23 15:34:37;;;;;;;;;;;;;;;;;;5134316;27;19923;-73
2021/08/23 15:37:03;;;;;;;;;;;;;;;;;;5134117;27;19952;-73
2021/08/23 15:39:29;;;;;;;;;;;;;;;;;;5134499;27;19923;-73
2021/08/23 15:41:56;;;;;;;;;;;;;;;;;;5133996;27;19931;-73
2021/08/23 15:44:22;;;;;;;;;;;;;;;;;;5134460;27;19931;-73
2021/08/23 15:46:48;;;;;;;;;;;;;;;;;;5133738;27;19923;-73
2021/08/23 15:49:15;;;;;;;;;;;;;;;;;;5134272;27;19927;-73
2021/08/23 15:51:41;;;;;;;;;;;;;;;;;;5133651;27;19924;-73
2021/08/23 15:54:07;;;;;;;;;;;;;;;;;;5134242;27;19923;-72
2021/08/23 15:56:33;;;;;;;;;;;;;;;;;;5133300;27;19934;-72
2021/08/23 15:59:00;;;;;;;;;;;;;;;;;;5134309;27;19947;-73
2021/08/23 16:01:26;;;;;;;;;;;;;;;;;;5133660;27;19923;-73
2021/08/23 16:03:52;;;;;;;;;;;;;;;;;;5133616;27;19923;-72
2021/08/23 16:06:19;;;;;;;;;;;;;;;;;;5133910;27;19924;-75
2021/08/23 16:08:45;;;;;;;;;;;;;;;;;;5133923;27;19927;-72
2021/08/23 16:11:11;;;;;;;;;;;;;;;;;;5133427;27;19924;-74
2021/08/23 16:13:38;;;;;;;;;;;;;;;;;;5133406;27;19969;-74
2021/08/23 16:16:04;;;;;;;;;;;;;;;;;;5132763;27;19923;-73
2021/08/23 16:18:30;;;;;;;;;;;;;;;;;;5133111;27;20377;-74
2021/08/23 16:20:56;;;;;;;;;;;;;;;;;;5133447;27;19923;-74
2021/08/23 16:23:23;;;;;;;;;;;;;;;;;;5133412;27;19930;-75
2021/08/23 16:25:49;;;;;;;;;;;;;;;;;;5133476;28;19931;-74
2021/08/23 16:28:15;;;;;;;;;;;;;;;;;;5136619;27;19934;-74
2021/08/23 16:30:42;;;;;;;;;;;;;;;;;;5140348;27;19930;-74
2021/08/23 16:33:08;;;;;;;;;;;;;;;;;;5140232;27;19923;-73
2021/08/23 16:35:37;;;;;;;;;;;;;;;;;;5140270;27;19927;-74
2021/08/23 16:38:04;;;;;;;;;;;;;;;;;;5140087;27;19931;-74
2021/08/23 16:40:30;;;;;;;;;;;;;;;;;;5140065;27;19923;-73